Time;durP1;ratioP1;P1;durP2;ratioP2;P2;SDS_P1;SDS_P2;PMS_P1;PMS_P2;Temp;Humidity;BMP_temperature;BMP_pressure;BME280_temperature;BME280_humidity;BME280_pressure;Samples;Min_cycle;Max_cycle;Signal;HPM_P1;HPM_P2
2023/10/06 00:00:47;;;;;;;8.60;2.42;;;;;;;;;;4995471;28;20049;-38
2023/10/06 00:03:16;;;;;;;12.07;2.53;;;;;;;;;;4997903;28;20796;-38
2023/10/06 00:05:44;;;;;;;11.70;3.00;;;;;;;;;;4995554;28;20060;-38
2023/10/06 00:08:17;;;;;;;10.00;3.33;;;;;;;;;;4999489;28;20591;-39
2023/10/06 00:10:51;;;;;;;9.60;2.10;;;;;;;;;;5005155;28;20933;-38
2023/10/06 00:13:28;;;;;;;9.40;3.00;;;;;;;;;;4991398;28;20044;-38
2023/10/06 00:15:59;;;;;;;9.05;2.58;;;;;;;;;;4993963;28;20116;-38
2023/10/06 00:18:27;;;;;;;11.63;3.03;;;;;;;;;;5005689;28;20663;-38
2023/10/06 00:20:57;;;;;;;11.82;2.70;;;;;;;;;;5004929;28;20037;-38
2023/10/06 00:23:28;;;;;;;9.50;2.80;;;;;;;;;;4995899;28;20045;-38
2023/10/06 00:25:56;;;;;;;14.20;2.88;;;;;;;;;;5005232;28;21134;-39
2023/10/06 00:28:26;;;;;;;10.50;2.28;;;;;;;;;;5010428;28;20042;-38
2023/10/06 00:30:56;;;;;;;8.70;2.63;;;;;;;;;;5005743;28;20045;-38
2023/10/06 00:33:27;;;;;;;12.10;2.90;;;;;;;;;;4991575;28;20042;-38
2023/10/06 00:35:57;;;;;;;10.93;2.83;;;;;;;;;;5004846;28;20518;-38
2023/10/06 00:38:30;;;;;;;8.57;2.25;;;;;;;;;;4999517;28;20045;-38
2023/10/06 00:41:06;;;;;;;8.52;2.63;;;;;;;;;;5004378;28;20046;-38
2023/10/06 00:43:36;;;;;;;10.57;2.80;;;;;;;;;;5011066;28;20380;-38
2023/10/06 00:46:06;;;;;;;9.15;2.67;;;;;;;;;;4994604;28;20038;-38
2023/10/06 00:48:36;;;;;;;9.73;2.70;;;;;;;;;;5009268;28;20046;-38
2023/10/06 00:51:05;;;;;;;11.50;2.58;;;;;;;;;;4999045;28;20044;-38
2023/10/06 00:53:34;;;;;;;8.80;2.35;;;;;;;;;;5009816;28;20038;-38
2023/10/06 00:56:08;;;;;;;16.13;2.90;;;;;;;;;;4994010;28;20099;-38
2023/10/06 00:58:37;;;;;;;9.52;2.63;;;;;;;;;;5005483;28;20041;-38
2023/10/06 01:01:07;;;;;;;10.20;2.95;;;;;;;;;;5002470;28;20419;-39
2023/10/06 01:03:39;;;;;;;9.15;2.92;;;;;;;;;;5005689;28;20420;-38
2023/10/06 01:06:14;;;;;;;12.98;3.35;;;;;;;;;;5006764;28;20462;-38
2023/10/06 01:08:48;;;;;;;9.20;3.10;;;;;;;;;;4960753;28;20492;-38
2023/10/06 01:11:18;;;;;;;8.55;2.63;;;;;;;;;;5002331;28;20048;-38
2023/10/06 01:13:55;;;;;;;11.18;2.80;;;;;;;;;;5000026;28;20546;-38
2023/10/06 01:16:31;;;;;;;14.27;3.28;;;;;;;;;;5009044;28;20586;-38
2023/10/06 01:19:14;;;;;;;9.32;2.78;;;;;;;;;;4984576;28;20706;-38
2023/10/06 01:21:45;;;;;;;13.73;2.97;;;;;;;;;;4986976;28;20053;-38
2023/10/06 01:24:15;;;;;;;9.68;2.78;;;;;;;;;;4997296;28;20124;-39
2023/10/06 01:26:43;;;;;;;9.65;2.60;;;;;;;;;;5004378;28;20514;-38
2023/10/06 01:29:11;;;;;;;10.35;2.97;;;;;;;;;;4971729;28;20033;-39
2023/10/06 01:31:40;;;;;;;10.50;3.20;;;;;;;;;;5001888;28;20107;-39
2023/10/06 01:34:11;;;;;;;10.03;2.43;;;;;;;;;;4988700;28;20110;-42
2023/10/06 01:36:39;;;;;;;10.13;3.22;;;;;;;;;;5002199;28;20128;-39
2023/10/06 01:39:16;;;;;;;12.07;2.90;;;;;;;;;;4995892;28;20049;-39
2023/10/06 01:41:47;;;;;;;11.45;2.97;;;;;;;;;;5003221;28;20056;-38
2023/10/06 01:44:15;;;;;;;8.57;3.17;;;;;;;;;;4976477;28;20049;-39
2023/10/06 01:46:44;;;;;;;8.73;2.70;;;;;;;;;;5045368;28;20413;-38
2023/10/06 01:49:14;;;;;;;9.80;2.88;;;;;;;;;;4992880;28;20388;-38
2023/10/06 01:51:42;;;;;;;10.90;2.72;;;;;;;;;;5005425;28;20040;-39
2023/10/06 01:54:27;;;;;;;10.93;3.47;;;;;;;;;;5005666;28;20040;-38
2023/10/06 01:56:57;;;;;;;8.40;2.40;;;;;;;;;;4995050;28;20050;-40
2023/10/06 01:59:25;;;;;;;11.23;2.90;;;;;;;;;;5017675;28;20237;-38
2023/10/06 02:01:52;;;;;;;8.07;2.75;;;;;;;;;;4994033;28;20049;-38
2023/10/06 02:04:22;;;;;;;9.55;2.33;;;;;;;;;;4994599;28;20041;-38
2023/10/06 02:06:51;;;;;;;9.57;2.65;;;;;;;;;;5007230;28;20052;-39
2023/10/06 02:09:18;;;;;;;9.57;2.85;;;;;;;;;;4995952;28;20060;-38
2023/10/06 02:11:46;;;;;;;9.40;3.00;;;;;;;;;;5011730;28;20124;-38
2023/10/06 02:14:17;;;;;;;11.20;2.83;;;;;;;;;;4999276;28;20786;-38
2023/10/06 02:16:45;;;;;;;12.48;3.35;;;;;;;;;;4997637;28;20768;-38
2023/10/06 02:19:16;;;;;;;12.10;4.00;;;;;;;;;;5010802;28;20041;-38
2023/10/06 02:21:45;;;;;;;10.95;2.85;;;;;;;;;;4998125;28;20128;-38
2023/10/06 02:24:16;;;;;;;12.43;3.73;;;;;;;;;;5006450;28;20057;-38
2023/10/06 02:26:44;;;;;;;11.50;3.22;;;;;;;;;;5001078;28;20045;-38
2023/10/06 02:29:19;;;;;;;14.85;3.67;;;;;;;;;;5005074;28;20037;-39
2023/10/06 02:31:48;;;;;;;12.02;3.13;;;;;;;;;;5005022;28;20052;-38
2023/10/06 02:34:24;;;;;;;11.95;3.40;;;;;;;;;;4996345;28;20150;-38
2023/10/06 02:36:54;;;;;;;10.90;3.37;;;;;;;;;;4994945;28;20065;-38
2023/10/06 02:39:26;;;;;;;13.23;3.17;;;;;;;;;;4998673;28;20033;-38
2023/10/06 02:42:01;;;;;;;9.88;3.03;;;;;;;;;;4974625;28;20037;-38
2023/10/06 02:44:30;;;;;;;8.75;2.80;;;;;;;;;;5004633;28;20045;-38
2023/10/06 02:47:04;;;;;;;10.63;3.15;;;;;;;;;;5004184;28;20042;-38
2023/10/06 02:49:35;;;;;;;14.47;3.50;;;;;;;;;;5002831;28;20033;-38
2023/10/06 02:52:06;;;;;;;14.25;3.75;;;;;;;;;;5000034;28;20099;-38
2023/10/06 02:54:34;;;;;;;9.20;2.80;;;;;;;;;;4995045;28;20100;-38
2023/10/06 02:57:04;;;;;;;11.70;3.38;;;;;;;;;;5011307;28;20421;-38
2023/10/06 02:59:36;;;;;;;10.30;3.35;;;;;;;;;;5010778;28;20523;-38
2023/10/06 03:02:15;;;;;;;11.07;3.00;;;;;;;;;;4990224;28;20057;-38
2023/10/06 03:04:44;;;;;;;17.40;3.85;;;;;;;;;;4989504;28;20045;-38
2023/10/06 03:07:14;;;;;;;10.52;3.33;;;;;;;;;;5012187;28;20415;-40
2023/10/06 03:09:46;;;;;;;15.50;3.22;;;;;;;;;;4989591;28;20136;-38
2023/10/06 03:12:15;;;;;;;14.00;3.40;;;;;;;;;;5012459;28;20041;-38
2023/10/06 03:14:44;;;;;;;9.50;3.57;;;;;;;;;;4987471;28;20041;-38
2023/10/06 03:17:13;;;;;;;10.70;3.65;;;;;;;;;;5002862;28;20037;-38
2023/10/06 03:19:43;;;;;;;14.68;3.47;;;;;;;;;;4995688;28;20053;-38
2023/10/06 03:22:13;;;;;;;10.75;3.65;;;;;;;;;;5002022;28;20038;-38
2023/10/06 03:24:53;;;;;;;10.20;3.25;;;;;;;;;;4977779;28;20048;-38
2023/10/06 03:27:23;;;;;;;14.17;3.03;;;;;;;;;;5006001;28;20043;-38
2023/10/06 03:29:54;;;;;;;15.15;3.33;;;;;;;;;;4987432;28;20792;-38
2023/10/06 03:32:32;;;;;;;13.80;3.40;;;;;;;;;;5010321;28;20575;-38
2023/10/06 03:35:14;;;;;;;9.35;3.10;;;;;;;;;;4996767;28;20029;-38
2023/10/06 03:37:51;;;;;;;14.15;3.55;;;;;;;;;;4996135;28;20042;-38
2023/10/06 03:40:25;;;;;;;14.37;3.53;;;;;;;;;;4976282;28;20052;-38
2023/10/06 03:42:53;;;;;;;11.50;3.65;;;;;;;;;;5007088;28;20050;-38
2023/10/06 03:45:29;;;;;;;11.23;3.35;;;;;;;;;;4998151;28;20060;-38
2023/10/06 03:48:11;;;;;;;9.80;3.70;;;;;;;;;;5007896;28;20065;-38
2023/10/06 03:50:43;;;;;;;10.00;3.13;;;;;;;;;;5035154;28;20042;-38
2023/10/06 03:53:13;;;;;;;12.37;3.03;;;;;;;;;;4996924;28;20045;-38
2023/10/06 03:55:44;;;;;;;14.73;3.45;;;;;;;;;;4999316;28;20044;-39
2023/10/06 03:58:14;;;;;;;10.20;3.63;;;;;;;;;;4998857;28;20493;-38
2023/10/06 04:00:47;;;;;;;10.20;3.42;;;;;;;;;;4997395;28;20041;-38
2023/10/06 04:03:18;;;;;;;8.73;3.28;;;;;;;;;;4998301;28;20523;-38
2023/10/06 04:05:48;;;;;;;9.80;3.53;;;;;;;;;;5006393;28;20565;-38
2023/10/06 04:08:18;;;;;;;16.83;4.13;;;;;;;;;;5001119;28;20056;-38
2023/10/06 04:10:48;;;;;;;12.25;3.50;;;;;;;;;;5005657;28;20045;-38
2023/10/06 04:13:17;;;;;;;13.43;3.72;;;;;;;;;;4999355;28;20071;-38
2023/10/06 04:15:49;;;;;;;11.38;3.15;;;;;;;;;;4990409;28;20051;-38
2023/10/06 04:18:37;;;;;;;14.10;3.57;;;;;;;;;;4993937;28;20537;-38
2023/10/06 04:21:11;;;;;;;8.43;3.63;;;;;;;;;;5001272;28;20065;-38
2023/10/06 04:23:41;;;;;;;11.52;3.03;;;;;;;;;;5001065;28;20102;-39
2023/10/06 04:26:13;;;;;;;11.10;3.05;;;;;;;;;;5004474;28;20057;-38
2023/10/06 04:28:45;;;;;;;12.23;3.40;;;;;;;;;;4994581;28;20061;-38
2023/10/06 04:31:15;;;;;;;9.27;3.40;;;;;;;;;;5005477;28;20045;-38
2023/10/06 04:33:45;;;;;;;8.63;3.28;;;;;;;;;;4981693;28;20065;-38
2023/10/06 04:36:20;;;;;;;11.38;3.17;;;;;;;;;;5002853;28;20033;-38
2023/10/06 04:38:48;;;;;;;11.25;3.42;;;;;;;;;;4996798;28;20064;-38
2023/10/06 04:41:20;;;;;;;11.82;4.13;;;;;;;;;;4998292;28;20415;-38
2023/10/06 04:43:48;;;;;;;11.70;3.60;;;;;;;;;;4983302;28;20643;-38
2023/10/06 04:46:18;;;;;;;13.30;4.03;;;;;;;;;;5005156;28;20038;-38
2023/10/06 04:48:49;;;;;;;14.48;3.55;;;;;;;;;;5002753;28;20136;-38
2023/10/06 04:51:17;;;;;;;13.00;3.75;;;;;;;;;;4997404;28;20063;-38
2023/10/06 04:53:47;;;;;;;11.80;4.10;;;;;;;;;;4992039;28;20048;-38
2023/10/06 04:56:16;;;;;;;9.00;4.00;;;;;;;;;;5002657;28;20048;-38
2023/10/06 04:58:44;;;;;;;13.00;4.30;;;;;;;;;;4997322;28;20045;-38
2023/10/06 05:01:12;;;;;;;12.50;3.95;;;;;;;;;;5009398;28;20235;-38
2023/10/06 05:03:42;;;;;;;14.10;3.75;;;;;;;;;;5000702;28;20331;-40
2023/10/06 05:06:15;;;;;;;10.30;3.90;;;;;;;;;;5000677;28;20547;-37
2023/10/06 05:08:46;;;;;;;15.50;4.60;;;;;;;;;;4995800;28;20046;-39
2023/10/06 05:11:14;;;;;;;12.45;4.20;;;;;;;;;;4993911;28;20763;-38
2023/10/06 05:13:43;;;;;;;13.00;3.38;;;;;;;;;;4994091;28;20107;-38
2023/10/06 05:16:11;;;;;;;9.07;3.70;;;;;;;;;;5013733;28;20045;-38
2023/10/06 05:18:39;;;;;;;11.60;4.10;;;;;;;;;;4991228;28;20069;-38
2023/10/06 05:21:09;;;;;;;9.43;3.63;;;;;;;;;;4996211;28;20045;-38
2023/10/06 05:23:38;;;;;;;12.73;3.90;;;;;;;;;;4992403;28;20068;-38
2023/10/06 05:26:10;;;;;;;9.50;3.70;;;;;;;;;;4998735;28;20041;-38
2023/10/06 05:28:38;;;;;;;10.50;3.75;;;;;;;;;;5005989;28;20609;-38
2023/10/06 05:31:08;;;;;;;10.23;3.42;;;;;;;;;;4993152;28;20316;-38
2023/10/06 05:33:35;;;;;;;13.10;3.63;;;;;;;;;;5003790;28;20054;-39
2023/10/06 05:36:11;;;;;;;7.53;3.05;;;;;;;;;;5001027;28;20220;-38
2023/10/06 05:38:42;;;;;;;13.00;3.63;;;;;;;;;;5017409;28;20037;-38
2023/10/06 05:41:11;;;;;;;10.48;3.30;;;;;;;;;;4997428;28;20029;-38
2023/10/06 05:43:40;;;;;;;11.60;4.20;;;;;;;;;;4996185;28;20046;-38
2023/10/06 05:46:09;;;;;;;15.67;3.97;;;;;;;;;;5007882;28;20095;-38
2023/10/06 05:48:38;;;;;;;14.73;4.20;;;;;;;;;;4993101;28;20077;-39
2023/10/06 05:51:08;;;;;;;14.73;4.18;;;;;;;;;;4999550;28;20041;-38
2023/10/06 05:53:40;;;;;;;13.40;4.07;;;;;;;;;;4988991;28;20495;-39
2023/10/06 05:56:09;;;;;;;12.95;4.25;;;;;;;;;;4983991;28;20041;-38
2023/10/06 05:58:38;;;;;;;12.07;4.00;;;;;;;;;;4995865;28;20397;-38
2023/10/06 06:01:10;;;;;;;16.48;4.45;;;;;;;;;;4992710;28;20654;-38
2023/10/06 06:03:44;;;;;;;11.65;4.50;;;;;;;;;;4990109;28;20057;-38
2023/10/06 06:06:21;;;;;;;14.43;4.03;;;;;;;;;;5000915;28;20098;-38
2023/10/06 06:08:52;;;;;;;10.50;3.90;;;;;;;;;;4995900;28;20034;-38
2023/10/06 06:11:21;;;;;;;13.00;3.80;;;;;;;;;;5000908;28;20045;-38
2023/10/06 06:13:49;;;;;;;11.90;3.90;;;;;;;;;;4984064;28;20510;-38
2023/10/06 06:16:34;;;;;;;13.73;4.57;;;;;;;;;;4991853;28;20037;-38
2023/10/06 06:19:05;;;;;;;13.70;3.90;;;;;;;;;;5000569;28;20069;-38
2023/10/06 06:21:34;;;;;;;12.02;4.30;;;;;;;;;;4993139;28;20103;-38
2023/10/06 06:24:02;;;;;;;13.10;3.63;;;;;;;;;;5002479;28;20447;-38
2023/10/06 06:26:31;;;;;;;12.60;3.65;;;;;;;;;;4994694;28;20059;-38
2023/10/06 06:29:02;;;;;;;14.05;4.30;;;;;;;;;;4995394;28;20049;-38
2023/10/06 06:31:32;;;;;;;20.35;4.63;;;;;;;;;;4988270;28;20045;-38
2023/10/06 06:34:00;;;;;;;12.32;4.47;;;;;;;;;;4993074;28;20034;-38
2023/10/06 06:36:31;;;;;;;12.03;4.13;;;;;;;;;;4994113;28;20046;-38
2023/10/06 06:39:02;;;;;;;14.10;4.25;;;;;;;;;;5000545;28;20126;-39
2023/10/06 06:41:31;;;;;;;16.17;3.97;;;;;;;;;;4993407;28;20045;-38
2023/10/06 06:43:59;;;;;;;11.23;4.25;;;;;;;;;;4988869;28;20041;-38
2023/10/06 06:46:29;;;;;;;12.73;4.22;;;;;;;;;;4985701;28;20033;-38
2023/10/06 06:48:59;;;;;;;14.70;4.20;;;;;;;;;;5004536;28;20045;-38
2023/10/06 06:51:30;;;;;;;12.20;3.83;;;;;;;;;;4995708;28;20041;-38
2023/10/06 06:53:58;;;;;;;12.52;4.00;;;;;;;;;;5001883;28;20047;-38
2023/10/06 06:56:28;;;;;;;13.55;3.85;;;;;;;;;;4991247;28;20046;-38
2023/10/06 06:58:59;;;;;;;14.77;4.95;;;;;;;;;;5007814;28;20229;-38
2023/10/06 07:01:27;;;;;;;11.17;4.87;;;;;;;;;;4994519;28;20061;-38
2023/10/06 07:03:55;;;;;;;15.63;4.80;;;;;;;;;;5001547;28;20506;-39
2023/10/06 07:06:25;;;;;;;13.05;4.38;;;;;;;;;;4991113;28;20402;-38
2023/10/06 07:08:53;;;;;;;10.23;4.90;;;;;;;;;;4982820;28;20043;-38
2023/10/06 07:11:21;;;;;;;10.68;4.50;;;;;;;;;;4972572;28;20042;-38
2023/10/06 07:13:49;;;;;;;13.73;4.80;;;;;;;;;;4999960;28;20496;-38
2023/10/06 07:16:24;;;;;;;16.23;4.35;;;;;;;;;;4995476;28;20400;-40
2023/10/06 07:18:53;;;;;;;10.60;3.85;;;;;;;;;;4992004;28;20042;-38
2023/10/06 07:21:22;;;;;;;14.52;4.97;;;;;;;;;;4993955;28;20495;-38
2023/10/06 07:23:51;;;;;;;10.13;3.90;;;;;;;;;;4983813;28;20037;-37
2023/10/06 07:26:19;;;;;;;16.27;4.10;;;;;;;;;;4997489;28;20045;-38
2023/10/06 07:28:51;;;;;;;14.23;4.35;;;;;;;;;;4991947;28;20043;-38
2023/10/06 07:31:21;;;;;;;18.25;4.53;;;;;;;;;;4985664;28;20038;-38
2023/10/06 07:33:51;;;;;;;11.65;3.95;;;;;;;;;;4988188;28;20045;-38
2023/10/06 07:36:19;;;;;;;14.13;4.70;;;;;;;;;;4995913;28;20061;-38
2023/10/06 07:38:48;;;;;;;13.70;4.10;;;;;;;;;;5005282;28;20041;-38
2023/10/06 07:41:19;;;;;;;11.18;3.85;;;;;;;;;;5004912;28;20111;-38
2023/10/06 07:43:50;;;;;;;13.30;3.90;;;;;;;;;;4987099;28;20830;-38
2023/10/06 07:46:18;;;;;;;10.55;4.38;;;;;;;;;;4986474;28;20041;-38
2023/10/06 07:48:50;;;;;;;10.70;4.10;;;;;;;;;;4995145;28;20044;-37
2023/10/06 07:51:19;;;;;;;12.87;4.30;;;;;;;;;;4991033;28;20122;-38
2023/10/06 07:53:48;;;;;;;11.50;4.15;;;;;;;;;;4987480;28;20689;-38
2023/10/06 07:56:18;;;;;;;8.48;3.53;;;;;;;;;;5001800;28;20060;-38
2023/10/06 07:58:46;;;;;;;13.32;4.20;;;;;;;;;;4275302;28;10000640;-38
2023/10/06 08:01:14;;;;;;;9.32;4.13;;;;;;;;;;4986302;28;20583;-38
2023/10/06 08:03:42;;;;;;;11.03;3.90;;;;;;;;;;4968491;28;20069;-38
2023/10/06 08:06:11;;;;;;;11.32;3.80;;;;;;;;;;4987206;28;20584;-38
2023/10/06 08:08:39;;;;;;;11.02;4.63;;;;;;;;;;4981665;28;20103;-38
2023/10/06 08:11:07;;;;;;;15.55;4.10;;;;;;;;;;4980384;28;20600;-38
2023/10/06 08:13:34;;;;;;;12.60;4.03;;;;;;;;;;4640284;28;10000489;-38
2023/10/06 08:16:03;;;;;;;15.18;4.13;;;;;;;;;;4991085;28;20077;-38
2023/10/06 08:18:31;;;;;;;9.45;3.78;;;;;;;;;;4943499;28;20057;-38
2023/10/06 08:21:01;;;;;;;12.27;3.88;;;;;;;;;;4977733;28;20761;-38
2023/10/06 08:23:31;;;;;;;8.15;3.22;;;;;;;;;;4964792;28;20140;-38
2023/10/06 08:26:00;;;;;;;8.73;3.60;;;;;;;;;;4978901;28;20045;-39
2023/10/06 08:28:31;;;;;;;11.85;3.83;;;;;;;;;;4971249;28;20088;-38
2023/10/06 08:31:02;;;;;;;9.40;3.50;;;;;;;;;;4970934;28;20045;-38
2023/10/06 08:33:31;;;;;;;9.88;3.20;;;;;;;;;;4976543;28;20049;-38
2023/10/06 08:36:06;;;;;;;9.07;3.50;;;;;;;;;;4967768;28;21928;-37
2023/10/06 08:38:36;;;;;;;10.60;3.20;;;;;;;;;;4976843;28;20287;-38
2023/10/06 08:41:04;;;;;;;8.27;3.70;;;;;;;;;;4979873;28;20049;-38
2023/10/06 08:43:32;;;;;;;11.52;3.90;;;;;;;;;;4967559;28;20127;-39
2023/10/06 08:46:01;;;;;;;9.02;3.10;;;;;;;;;;4989857;28;20056;-38
2023/10/06 08:48:35;;;;;;;10.88;3.80;;;;;;;;;;4963184;28;20583;-38
2023/10/06 08:51:07;;;;;;;11.90;4.00;;;;;;;;;;4975748;28;20045;-39
2023/10/06 08:53:38;;;;;;;10.10;3.78;;;;;;;;;;4982612;28;20416;-38
2023/10/06 08:56:07;;;;;;;10.38;4.03;;;;;;;;;;4974732;28;20056;-38
2023/10/06 08:58:36;;;;;;;14.45;4.55;;;;;;;;;;4982104;28;20053;-38
2023/10/06 09:01:05;;;;;;;12.35;4.10;;;;;;;;;;4982274;28;20491;-38
2023/10/06 09:03:33;;;;;;;11.70;4.00;;;;;;;;;;4983033;28;20053;-38
2023/10/06 09:06:02;;;;;;;9.07;4.07;;;;;;;;;;4995796;28;20680;-37
2023/10/06 09:08:39;;;;;;;7.78;3.55;;;;;;;;;;4989159;28;20285;-38
2023/10/06 09:11:08;;;;;;;7.40;3.58;;;;;;;;;;4991818;28;20050;-39
2023/10/06 09:13:37;;;;;;;10.30;3.80;;;;;;;;;;5001571;28;20045;-37
2023/10/06 09:16:07;;;;;;;8.13;2.70;;;;;;;;;;4992338;28;20072;-37
2023/10/06 09:18:35;;;;;;;8.68;2.80;;;;;;;;;;4990762;28;20041;-37
2023/10/06 09:21:16;;;;;;;10.60;3.75;;;;;;;;;;4995599;28;20045;-38
2023/10/06 09:23:45;;;;;;;10.88;3.47;;;;;;;;;;5002441;28;20267;-37
2023/10/06 09:26:15;;;;;;;11.43;3.00;;;;;;;;;;5018656;28;20567;-38
2023/10/06 09:28:51;;;;;;;9.20;3.63;;;;;;;;;;4991973;28;20041;-38
2023/10/06 09:31:33;;;;;;;9.68;2.85;;;;;;;;;;4998637;28;20052;-37
2023/10/06 09:34:04;;;;;;;8.77;3.30;;;;;;;;;;5005347;28;20046;-37
2023/10/06 09:36:36;;;;;;;7.13;2.58;;;;;;;;;;4966728;28;20958;-37
2023/10/06 09:39:29;;;;;;;8.88;3.60;;;;;;;;;;5005758;28;20081;-38
2023/10/06 09:42:01;;;;;;;8.37;3.67;;;;;;;;;;4991567;28;20077;-38
2023/10/06 09:44:30;;;;;;;8.23;2.70;;;;;;;;;;4993160;28;20120;-39
2023/10/06 09:47:00;;;;;;;6.05;2.35;;;;;;;;;;4993164;28;20044;-38
2023/10/06 09:49:30;;;;;;;10.10;3.00;;;;;;;;;;5022618;28;20069;-41
2023/10/06 09:52:02;;;;;;;8.25;3.03;;;;;;;;;;4996401;28;20045;-38
2023/10/06 09:54:30;;;;;;;10.27;2.77;;;;;;;;;;4991141;28;20099;-38
2023/10/06 09:57:00;;;;;;;8.70;2.70;;;;;;;;;;4997228;28;20071;-38
2023/10/06 09:59:28;;;;;;;9.38;2.65;;;;;;;;;;5003479;28;20037;-38
2023/10/06 10:01:57;;;;;;;9.50;2.88;;;;;;;;;;4991443;28;20053;-38
2023/10/06 10:04:29;;;;;;;7.78;2.33;;;;;;;;;;5001887;28;20037;-38
2023/10/06 10:06:57;;;;;;;7.40;2.30;;;;;;;;;;4987331;28;20448;-38
2023/10/06 10:09:28;;;;;;;7.40;2.25;;;;;;;;;;5003564;28;20049;-38
2023/10/06 10:12:02;;;;;;;10.23;2.25;;;;;;;;;;4991027;28;20037;-38
2023/10/06 10:14:44;;;;;;;6.93;2.27;;;;;;;;;;4653079;28;9999904;-38
2023/10/06 10:17:16;;;;;;;8.02;2.10;;;;;;;;;;4998144;28;20038;-38
2023/10/06 10:19:46;;;;;;;8.38;2.28;;;;;;;;;;4991074;28;20073;-38
2023/10/06 10:22:16;;;;;;;8.25;2.25;;;;;;;;;;4998176;28;20061;-38
2023/10/06 10:24:44;;;;;;;9.25;2.30;;;;;;;;;;4985577;28;20202;-38
2023/10/06 10:27:17;;;;;;;9.77;2.60;;;;;;;;;;5029711;28;20037;-39
2023/10/06 10:29:47;;;;;;;7.80;2.53;;;;;;;;;;4995625;28;20053;-38
2023/10/06 10:32:15;;;;;;;8.75;2.13;;;;;;;;;;4997047;28;20427;-38
2023/10/06 10:34:58;;;;;;;8.75;2.28;;;;;;;;;;4991202;28;20080;-38
2023/10/06 10:37:26;;;;;;;7.45;2.75;;;;;;;;;;4993849;28;20049;-38
2023/10/06 10:39:55;;;;;;;7.13;2.33;;;;;;;;;;4991572;28;20045;-38
2023/10/06 10:42:23;;;;;;;5.97;2.38;;;;;;;;;;4993788;28;20431;-38
2023/10/06 10:45:13;;;;;;;6.90;2.40;;;;;;;;;;4994805;28;20092;-38
2023/10/06 10:47:41;;;;;;;7.65;2.17;;;;;;;;;;4991065;28;20040;-38
2023/10/06 10:50:11;;;;;;;10.02;2.17;;;;;;;;;;4997808;28;20119;-38
2023/10/06 10:52:39;;;;;;;10.87;2.67;;;;;;;;;;4998162;28;20073;-39
2023/10/06 10:55:12;;;;;;;7.97;2.97;;;;;;;;;;4999438;28;20055;-38
2023/10/06 10:57:44;;;;;;;7.88;2.10;;;;;;;;;;4991318;28;20042;-38
2023/10/06 11:00:14;;;;;;;9.57;2.70;;;;;;;;;;4997667;28;20053;-38
2023/10/06 11:02:43;;;;;;;5.85;2.35;;;;;;;;;;4979412;28;20503;-38
2023/10/06 11:05:11;;;;;;;7.47;2.47;;;;;;;;;;4996953;28;20432;-39
2023/10/06 11:07:54;;;;;;;7.68;2.28;;;;;;;;;;4985109;28;20373;-39
2023/10/06 11:10:22;;;;;;;7.38;2.60;;;;;;;;;;4986015;28;20384;-39
2023/10/06 11:12:51;;;;;;;11.95;2.83;;;;;;;;;;4997989;28;20045;-39
2023/10/06 11:15:28;;;;;;;9.18;2.53;;;;;;;;;;4984766;28;20042;-40
2023/10/06 11:17:59;;;;;;;6.50;2.20;;;;;;;;;;4991346;28;20042;-40
2023/10/06 11:20:33;;;;;;;7.10;2.10;;;;;;;;;;4994298;28;20042;-39
2023/10/06 11:23:01;;;;;;;9.85;2.13;;;;;;;;;;4993390;28;20038;-39
2023/10/06 11:25:30;;;;;;;8.80;2.70;;;;;;;;;;4988277;28;20159;-39
2023/10/06 11:28:08;;;;;;;6.72;2.45;;;;;;;;;;4990794;28;20336;-39
2023/10/06 11:30:38;;;;;;;6.13;1.70;;;;;;;;;;4983099;28;20679;-39
2023/10/06 11:33:08;;;;;;;8.02;2.38;;;;;;;;;;4969242;28;20104;-39
2023/10/06 11:35:36;;;;;;;6.00;2.10;;;;;;;;;;4979284;28;20138;-38
2023/10/06 11:38:15;;;;;;;7.80;2.33;;;;;;;;;;4988179;28;20456;-39
2023/10/06 11:40:44;;;;;;;8.55;2.63;;;;;;;;;;4983148;28;20042;-39
2023/10/06 11:43:13;;;;;;;9.77;2.50;;;;;;;;;;4972777;28;20052;-39
2023/10/06 11:45:42;;;;;;;5.38;1.80;;;;;;;;;;4983162;28;20179;-39
2023/10/06 11:48:23;;;;;;;10.63;2.33;;;;;;;;;;4962838;28;20112;-39
2023/10/06 11:50:59;;;;;;;7.32;2.60;;;;;;;;;;4978996;28;20045;-39
2023/10/06 11:53:28;;;;;;;7.25;2.10;;;;;;;;;;4984466;28;20131;-39
2023/10/06 11:56:05;;;;;;;7.13;2.30;;;;;;;;;;4965125;28;20041;-39
2023/10/06 11:58:35;;;;;;;6.70;2.35;;;;;;;;;;4977808;28;20090;-39
2023/10/06 12:01:05;;;;;;;5.60;1.88;;;;;;;;;;4971886;28;20162;-39
2023/10/06 12:03:33;;;;;;;7.00;2.50;;;;;;;;;;4979420;28;20335;-39
2023/10/06 12:06:02;;;;;;;6.38;1.50;;;;;;;;;;4973506;28;20128;-39
2023/10/06 12:08:30;;;;;;;9.70;2.07;;;;;;;;;;4975654;28;20044;-39
2023/10/06 12:11:03;;;;;;;8.93;2.20;;;;;;;;;;4976816;28;20057;-40
2023/10/06 12:13:32;;;;;;;6.57;1.95;;;;;;;;;;4975248;28;20037;-39
2023/10/06 12:16:00;;;;;;;10.02;2.15;;;;;;;;;;4984619;28;20045;-39
2023/10/06 12:18:30;;;;;;;6.47;2.17;;;;;;;;;;4968142;28;20116;-39
2023/10/06 12:20:59;;;;;;;6.70;1.90;;;;;;;;;;4974625;28;20056;-40
2023/10/06 12:23:26;;;;;;;9.07;2.10;;;;;;;;;;4978174;28;20053;-39
2023/10/06 12:25:55;;;;;;;6.28;2.22;;;;;;;;;;4970021;28;20051;-41
2023/10/06 12:28:25;;;;;;;5.00;1.58;;;;;;;;;;4976061;28;20045;-40
2023/10/06 12:30:54;;;;;;;9.35;1.90;;;;;;;;;;4963999;28;20048;-39
2023/10/06 12:33:21;;;;;;;6.90;1.90;;;;;;;;;;4968500;28;20616;-39
2023/10/06 12:35:52;;;;;;;7.50;1.77;;;;;;;;;;4964529;28;20053;-40
2023/10/06 12:38:19;;;;;;;5.43;2.00;;;;;;;;;;4982699;28;20029;-39
2023/10/06 12:40:48;;;;;;;8.32;2.30;;;;;;;;;;4975086;28;20140;-39
2023/10/06 12:43:20;;;;;;;6.72;1.90;;;;;;;;;;4976530;28;20183;-39
2023/10/06 12:45:47;;;;;;;6.07;1.93;;;;;;;;;;4972190;28;20547;-39
2023/10/06 12:48:15;;;;;;;8.88;2.10;;;;;;;;;;4963436;28;20503;-39
2023/10/06 12:50:43;;;;;;;9.65;2.17;;;;;;;;;;4957622;28;20053;-39
2023/10/06 12:53:13;;;;;;;7.63;2.15;;;;;;;;;;4972199;28;20047;-39
2023/10/06 12:55:43;;;;;;;6.05;2.33;;;;;;;;;;4966154;28;20050;-39
2023/10/06 12:58:14;;;;;;;10.83;2.37;;;;;;;;;;4968474;28;20049;-39
2023/10/06 13:00:44;;;;;;;6.43;1.80;;;;;;;;;;4965850;28;20810;-40
2023/10/06 13:03:16;;;;;;;7.53;2.55;;;;;;;;;;4972980;28;21025;-39
2023/10/06 13:05:45;;;;;;;8.77;2.67;;;;;;;;;;4966974;28;20041;-39
2023/10/06 13:08:16;;;;;;;8.27;2.25;;;;;;;;;;4976032;28;20054;-39
2023/10/06 13:10:45;;;;;;;8.27;2.40;;;;;;;;;;4957388;28;20042;-39
2023/10/06 13:13:16;;;;;;;8.70;2.35;;;;;;;;;;4981699;28;20052;-39
2023/10/06 13:15:45;;;;;;;7.95;2.90;;;;;;;;;;4973691;28;20045;-39
2023/10/06 13:18:13;;;;;;;7.63;2.15;;;;;;;;;;4963331;28;20056;-39
2023/10/06 13:20:41;;;;;;;6.25;2.20;;;;;;;;;;4974072;28;20127;-39
2023/10/06 13:23:09;;;;;;;6.73;2.17;;;;;;;;;;4972395;28;20723;-39
2023/10/06 13:25:38;;;;;;;6.45;1.95;;;;;;;;;;4978885;28;20060;-39
2023/10/06 13:28:14;;;;;;;6.07;2.25;;;;;;;;;;5001101;28;20049;-39
2023/10/06 13:30:43;;;;;;;4.80;1.90;;;;;;;;;;4978638;28;20124;-39
2023/10/06 13:33:11;;;;;;;5.90;2.20;;;;;;;;;;4961880;28;20427;-39
2023/10/06 13:35:42;;;;;;;10.17;2.27;;;;;;;;;;4983619;28;20567;-39
2023/10/06 13:38:17;;;;;;;6.05;2.28;;;;;;;;;;4940667;28;20673;-39
2023/10/06 13:40:48;;;;;;;7.72;2.22;;;;;;;;;;4966832;28;20037;-39
2023/10/06 13:43:17;;;;;;;6.40;1.90;;;;;;;;;;4964820;28;20045;-38
2023/10/06 13:45:45;;;;;;;6.55;2.40;;;;;;;;;;4931241;28;20882;-39
2023/10/06 13:48:15;;;;;;;5.73;1.77;;;;;;;;;;4983341;28;20787;-38
2023/10/06 13:50:43;;;;;;;6.63;1.88;;;;;;;;;;4979051;28;20045;-39
2023/10/06 13:53:11;;;;;;;9.18;2.13;;;;;;;;;;4981804;28;20799;-39
2023/10/06 13:55:39;;;;;;;6.13;2.00;;;;;;;;;;4913702;28;20052;-39
2023/10/06 13:58:08;;;;;;;7.18;2.50;;;;;;;;;;4913619;28;20041;-39
2023/10/06 14:00:38;;;;;;;5.63;1.70;;;;;;;;;;4968517;28;20502;-39
2023/10/06 14:03:07;;;;;;;5.78;1.88;;;;;;;;;;4970093;28;20063;-39
2023/10/06 14:05:52;;;;;;;6.03;1.77;;;;;;;;;;4937610;28;20073;-40
2023/10/06 14:08:21;;;;;;;8.32;2.40;;;;;;;;;;4986128;28;20049;-39
2023/10/06 14:10:49;;;;;;;7.07;1.85;;;;;;;;;;4972616;28;20041;-39
2023/10/06 14:13:23;;;;;;;6.40;1.87;;;;;;;;;;4952634;28;20048;-39
2023/10/06 14:15:54;;;;;;;7.57;1.60;;;;;;;;;;4984246;28;20057;-39
2023/10/06 14:18:25;;;;;;;7.13;1.90;;;;;;;;;;4957405;28;20396;-39
2023/10/06 14:20:57;;;;;;;7.43;2.30;;;;;;;;;;4984590;28;20537;-39
2023/10/06 14:23:29;;;;;;;7.60;2.22;;;;;;;;;;4956928;28;20046;-38
2023/10/06 14:26:00;;;;;;;7.17;1.73;;;;;;;;;;4974262;28;20143;-39
2023/10/06 14:28:33;;;;;;;7.60;1.98;;;;;;;;;;4956412;28;20041;-40
2023/10/06 14:31:09;;;;;;;6.70;2.00;;;;;;;;;;4954326;28;20041;-39
2023/10/06 14:33:44;;;;;;;6.07;1.77;;;;;;;;;;4969158;28;20094;-39
2023/10/06 14:36:24;;;;;;;6.68;1.75;;;;;;;;;;4976887;28;20034;-39
2023/10/06 14:47:09;;;;;;;9.60;2.17;;;;;;;;;;4974747;28;20065;-40
2023/10/06 14:49:42;;;;;;;6.13;2.22;;;;;;;;;;4970869;28;20048;-39
2023/10/06 14:52:12;;;;;;;8.40;3.00;;;;;;;;;;4980099;28;20048;-40
2023/10/06 14:54:40;;;;;;;9.63;2.90;;;;;;;;;;4974023;28;20037;-39
2023/10/06 14:57:08;;;;;;;5.82;2.00;;;;;;;;;;4964750;28;20052;-38
2023/10/06 14:59:41;;;;;;;6.13;2.60;;;;;;;;;;4968686;28;20274;-39
2023/10/06 15:02:09;;;;;;;5.97;2.03;;;;;;;;;;4971360;28;20049;-40
2023/10/06 15:04:39;;;;;;;5.50;2.50;;;;;;;;;;4982163;28;20136;-39